Unken, Austria
Current Conditions -  °F | °C
As of 11:20 PM on Monday 20 Oct 2014 (Local Time) from LOWS Reporting Station
Broken Clouds Broken Clouds  
Wind Chill: 59°   Ceiling: 2500
Heat Index: 59°   Visibility: 6mi
Dew Point: 57°   Wind: 2mph
Humidity: 94%   Direction: NA
Pressure: 30"   Gusts: NA
Location:  47.65°N, 12.73°E
Report Text: LOWS 202120Z VRB02KT 9999 FEW012 BKN025 BKN042 15/14 Q1016
Loading
Personal Weather Stations






























Interactive Weather Map
Tropical Storm Tracking
New forecast layout! Learn more

10-Day Weather Forecast

Advertisements
Track Severe Weather on mobile